createdAt,value
2018-12-20T00:00:49.602Z,35.80
2018-12-20T00:03:17.031Z,37.97
2018-12-20T00:05:44.512Z,35.60
2018-12-20T00:08:12.041Z,38.43
2018-12-20T00:10:39.609Z,33.63
2018-12-20T00:13:07.122Z,36.80
2018-12-20T00:15:34.700Z,36.50
2018-12-20T00:18:02.312Z,36.33
2018-12-20T00:20:29.858Z,36.00
2018-12-20T00:22:57.419Z,34.97
2018-12-20T00:25:24.869Z,34.93
2018-12-20T00:27:52.340Z,34.73
2018-12-20T00:30:19.949Z,38.93
2018-12-20T00:32:47.388Z,34.57
2018-12-20T00:35:14.827Z,36.47
2018-12-20T00:37:42.322Z,39.00
2018-12-20T00:40:09.874Z,40.57
2018-12-20T00:42:37.346Z,40.77
2018-12-20T00:45:04.895Z,39.53
2018-12-20T00:47:32.363Z,42.80
2018-12-20T00:49:59.796Z,38.93
2018-12-20T00:52:27.429Z,43.10
2018-12-20T00:54:54.906Z,36.97
2018-12-20T00:57:22.411Z,40.87
2018-12-20T00:59:50.073Z,36.90
2018-12-20T01:02:17.697Z,41.77
2018-12-20T01:04:45.187Z,40.37
2018-12-20T01:07:14.739Z,37.73
2018-12-20T01:09:42.355Z,44.80
2018-12-20T01:12:09.867Z,38.47
2018-12-20T01:14:45.201Z,41.50
2018-12-20T01:17:06.897Z,42.27
2018-12-20T01:19:34.356Z,40.53
2018-12-20T01:22:01.892Z,41.63
2018-12-20T01:24:29.438Z,41.63
2018-12-20T01:26:56.907Z,39.43
2018-12-20T01:29:24.369Z,42.77
2018-12-20T01:31:51.986Z,44.80
2018-12-20T01:34:19.644Z,41.27
2018-12-20T01:36:47.129Z,42.13
2018-12-20T01:39:14.828Z,41.23
2018-12-20T01:41:42.379Z,42.90
2018-12-20T01:44:09.844Z,41.77
2018-12-20T01:46:37.376Z,39.87
2018-12-20T01:49:04.817Z,40.57
2018-12-20T01:51:32.638Z,41.80
2018-12-20T01:54:00.307Z,41.90
2018-12-20T01:56:27.918Z,37.40
2018-12-20T01:58:55.452Z,38.40
2018-12-20T02:01:23.003Z,41.83
2018-12-20T02:03:50.589Z,42.00
2018-12-20T02:06:18.139Z,39.43
2018-12-20T02:08:45.710Z,43.73
2018-12-20T02:11:13.178Z,39.97
2018-12-20T02:13:40.804Z,42.43
2018-12-20T02:16:08.271Z,40.73
2018-12-20T02:18:35.784Z,45.23
2018-12-20T02:21:03.303Z,44.30
2018-12-20T02:23:30.885Z,43.93
2018-12-20T02:25:58.394Z,49.67
2018-12-20T02:28:25.953Z,45.43
2018-12-20T02:30:53.509Z,42.20
2018-12-20T02:33:20.950Z,45.10
2018-12-20T02:35:48.490Z,44.90
2018-12-20T02:38:15.945Z,45.87
2018-12-20T02:40:43.606Z,45.43
2018-12-20T02:43:11.110Z,49.67
2018-12-20T02:45:38.742Z,43.50
2018-12-20T02:48:06.223Z,45.63
2018-12-20T02:50:33.951Z,48.97
2018-12-20T02:53:01.475Z,45.13
2018-12-20T02:55:28.942Z,49.17
2018-12-20T02:57:56.492Z,54.77
2018-12-20T03:00:24.166Z,54.13
2018-12-20T03:02:51.710Z,51.80
2018-12-20T03:05:19.151Z,56.90
2018-12-20T03:07:46.812Z,53.93
2018-12-20T03:10:14.381Z,63.97
2018-12-20T03:12:41.952Z,60.17
2018-12-20T03:15:09.559Z,61.23
2018-12-20T03:17:37.234Z,60.57
2018-12-20T03:20:05.695Z,60.67
2018-12-20T03:22:33.156Z,61.73
2018-12-20T03:25:00.748Z,67.87
2018-12-20T03:27:28.260Z,69.40
2018-12-20T03:29:55.793Z,67.57
2018-12-20T03:32:23.725Z,78.10
2018-12-20T03:34:51.574Z,65.50
2018-12-20T03:37:19.310Z,70.90
2018-12-20T03:39:47.024Z,64.60
2018-12-20T03:42:14.499Z,82.13
2018-12-20T03:44:42.100Z,70.00
2018-12-20T03:47:09.794Z,75.83
2018-12-20T03:49:37.287Z,77.20
2018-12-20T03:52:04.739Z,68.00
2018-12-20T03:54:32.231Z,75.17
2018-12-20T03:56:59.722Z,80.50
2018-12-20T03:59:27.255Z,77.80
2018-12-20T04:01:54.716Z,80.53
2018-12-20T04:04:22.455Z,79.13
2018-12-20T04:06:49.967Z,72.20
2018-12-20T04:09:17.479Z,75.73
2018-12-20T04:11:45.047Z,73.97
2018-12-20T04:14:12.586Z,77.70
2018-12-20T04:16:40.159Z,77.03
2018-12-20T04:19:07.806Z,80.37
2018-12-20T04:21:35.295Z,85.90
2018-12-20T04:24:02.827Z,86.20
2018-12-20T04:26:30.339Z,80.40
2018-12-20T04:28:57.821Z,83.47
2018-12-20T04:31:25.761Z,82.20
2018-12-20T04:33:53.508Z,71.63
2018-12-20T04:36:21.092Z,77.13
2018-12-20T04:38:48.888Z,78.23
2018-12-20T04:41:16.578Z,78.70
2018-12-20T04:43:44.066Z,80.30
2018-12-20T04:46:11.694Z,78.57
2018-12-20T04:48:39.519Z,80.63
2018-12-20T04:51:07.140Z,80.03
2018-12-20T04:53:34.805Z,74.63
2018-12-20T04:56:02.409Z,76.50
2018-12-20T04:58:29.929Z,85.60
2018-12-20T05:00:57.451Z,79.97
2018-12-20T05:03:24.965Z,78.63
2018-12-20T05:05:52.399Z,80.57
2018-12-20T05:08:19.942Z,86.20
2018-12-20T05:10:47.783Z,91.10
2018-12-20T05:13:15.464Z,86.93
2018-12-20T05:15:42.971Z,85.07
2018-12-20T05:18:10.657Z,85.97
2018-12-20T05:20:38.331Z,86.80
2018-12-20T05:23:05.932Z,82.27
2018-12-20T05:25:33.625Z,86.87
2018-12-20T05:28:01.102Z,82.67
2018-12-20T05:30:28.570Z,89.30
2018-12-20T05:32:56.108Z,81.03
2018-12-20T05:35:23.862Z,85.20
2018-12-20T05:37:51.408Z,85.10
2018-12-20T05:40:18.850Z,88.93
2018-12-20T05:42:46.582Z,78.03
2018-12-20T05:45:14.119Z,86.20
2018-12-20T05:47:41.583Z,86.23
2018-12-20T05:50:09.083Z,82.83
2018-12-20T05:52:36.575Z,82.57
2018-12-20T05:55:04.280Z,86.43
2018-12-20T05:57:31.751Z,76.93
2018-12-20T05:59:59.221Z,79.60
2018-12-20T06:02:26.714Z,78.33
2018-12-20T06:04:54.380Z,84.90
2018-12-20T06:07:21.892Z,85.30
2018-12-20T06:09:49.455Z,81.57
2018-12-20T06:12:17.119Z,73.97
2018-12-20T06:14:44.855Z,73.00
2018-12-20T06:17:12.370Z,79.17
2018-12-20T06:19:39.908Z,79.13
2018-12-20T06:22:07.491Z,81.63
2018-12-20T06:24:35.042Z,77.63
2018-12-20T06:27:02.511Z,85.43
2018-12-20T06:29:29.955Z,80.10
2018-12-20T06:31:57.452Z,83.40
2018-12-20T06:34:24.929Z,88.90
2018-12-20T06:36:52.389Z,88.17
2018-12-20T06:39:19.903Z,81.50
2018-12-20T06:41:47.342Z,82.97
2018-12-20T06:44:14.800Z,78.97
2018-12-20T06:46:47.868Z,83.60
2018-12-20T06:49:15.393Z,85.43
2018-12-20T06:51:42.907Z,88.00
2018-12-20T06:54:10.340Z,94.57
2018-12-20T06:56:37.782Z,88.30
2018-12-20T06:59:05.251Z,90.70
2018-12-20T07:01:32.695Z,99.93
2018-12-20T07:04:00.171Z,95.33
2018-12-20T07:06:27.628Z,96.53
2018-12-20T07:08:55.079Z,86.13
2018-12-20T07:11:22.539Z,98.10
2018-12-20T07:13:49.996Z,95.47
2018-12-20T07:16:17.474Z,94.70
2018-12-20T07:18:44.983Z,91.87
2018-12-20T07:21:12.407Z,92.80
2018-12-20T07:23:39.869Z,94.90
2018-12-20T07:26:07.329Z,95.60
2018-12-20T07:28:34.759Z,88.97
2018-12-20T07:31:02.224Z,94.03
2018-12-20T07:33:29.679Z,111.23
2018-12-20T07:35:57.136Z,109.93
2018-12-20T07:38:24.571Z,101.67
2018-12-20T07:40:52.045Z,100.60
2018-12-20T07:43:19.476Z,101.87
2018-12-20T07:45:47.040Z,97.77
2018-12-20T07:48:14.466Z,103.77
2018-12-20T07:50:41.927Z,96.00
2018-12-20T07:53:09.378Z,93.73
2018-12-20T07:55:36.834Z,106.37
2018-12-20T07:58:04.324Z,102.43
2018-12-20T08:00:33.739Z,95.30
2018-12-20T08:03:01.263Z,100.67
2018-12-20T08:05:28.716Z,97.57
2018-12-20T08:07:56.180Z,97.37
2018-12-20T08:10:23.632Z,99.33
2018-12-20T08:12:51.100Z,94.90
2018-12-20T08:15:18.556Z,109.13
2018-12-20T08:17:46.040Z,107.13
2018-12-20T08:20:14.525Z,111.17
2018-12-20T08:22:41.971Z,115.60
2018-12-20T08:25:09.440Z,126.77
2018-12-20T08:27:36.883Z,120.83
2018-12-20T08:30:05.264Z,126.90
2018-12-20T08:32:32.763Z,114.93
2018-12-20T08:35:00.202Z,127.30
2018-12-20T08:37:27.671Z,114.00
2018-12-20T08:39:55.123Z,124.63
2018-12-20T08:42:22.587Z,141.17
2018-12-20T08:44:50.031Z,140.13
2018-12-20T08:47:17.499Z,117.07
2018-12-20T08:49:44.947Z,122.53
2018-12-20T08:52:12.378Z,140.13
2018-12-20T08:54:39.947Z,123.47
2018-12-20T08:57:07.387Z,114.70
2018-12-20T08:59:34.851Z,111.90
2018-12-20T09:02:02.406Z,120.47
2018-12-20T09:04:29.871Z,113.07
2018-12-20T09:06:57.309Z,99.63
2018-12-20T09:09:24.819Z,104.97
2018-12-20T09:11:52.439Z,99.57
2018-12-20T09:14:19.911Z,95.00
2018-12-20T09:16:47.387Z,97.57
2018-12-20T09:19:14.838Z,87.10
2018-12-20T09:21:42.295Z,91.10
2018-12-20T09:24:09.763Z,90.37
2018-12-20T09:26:37.199Z,92.17
2018-12-20T09:29:04.683Z,86.13
2018-12-20T09:31:32.131Z,90.17
2018-12-20T09:33:59.559Z,76.93
2018-12-20T09:36:27.007Z,83.43
2018-12-20T09:38:54.459Z,85.53
2018-12-20T09:41:21.935Z,78.53
2018-12-20T09:43:49.367Z,78.70
2018-12-20T09:46:16.840Z,80.20
2018-12-20T09:48:46.279Z,80.77
2018-12-20T09:51:13.755Z,73.23
2018-12-20T09:53:41.223Z,73.97
2018-12-20T09:56:08.655Z,81.50
2018-12-20T09:58:36.122Z,74.77
2018-12-20T10:01:03.587Z,80.27
2018-12-20T10:03:31.023Z,74.57
2018-12-20T10:05:58.484Z,71.60
2018-12-20T10:08:25.969Z,71.73
2018-12-20T10:10:53.400Z,73.03
2018-12-20T10:13:20.860Z,70.60
2018-12-20T10:15:48.314Z,73.23
2018-12-20T10:18:15.772Z,74.03
2018-12-20T10:20:43.216Z,80.47
2018-12-20T10:23:10.670Z,81.90
2018-12-20T10:25:38.113Z,72.33
2018-12-20T10:28:05.548Z,68.27
2018-12-20T10:30:33.017Z,67.63
2018-12-20T10:33:00.460Z,65.70
2018-12-20T10:35:27.887Z,62.33
2018-12-20T10:37:55.379Z,65.17
2018-12-20T10:40:22.843Z,64.77
2018-12-20T10:42:50.293Z,65.20
2018-12-20T10:45:17.796Z,73.80
2018-12-20T10:47:45.246Z,64.27
2018-12-20T10:50:12.744Z,65.40
2018-12-20T10:52:40.179Z,65.80
2018-12-20T10:55:07.751Z,63.40
2018-12-20T10:57:35.266Z,61.53
2018-12-20T11:00:02.836Z,60.60
2018-12-20T11:02:35.835Z,59.80
2018-12-20T11:05:05.557Z,65.83
2018-12-20T11:10:37.222Z,61.67
2018-12-20T11:13:06.619Z,68.90
2018-12-20T11:15:34.067Z,63.03
2018-12-20T11:18:01.511Z,60.40
2018-12-20T11:20:28.991Z,54.97
2018-12-20T11:22:56.550Z,55.70
2018-12-20T11:25:23.998Z,61.07
2018-12-20T11:27:51.476Z,59.40
2018-12-20T11:30:18.937Z,56.23
2018-12-20T11:32:46.452Z,54.90
2018-12-20T11:35:13.935Z,60.73
2018-12-20T11:37:41.387Z,63.20
2018-12-20T11:40:09.439Z,59.93
2018-12-20T11:42:36.998Z,57.47
2018-12-20T11:45:05.157Z,52.70
2018-12-20T11:47:32.667Z,56.17
2018-12-20T11:50:00.135Z,49.03
2018-12-20T11:52:27.615Z,47.63
2018-12-20T11:54:55.071Z,51.43
2018-12-20T11:57:22.561Z,53.17
2018-12-20T11:59:50.015Z,49.23
2018-12-20T12:02:24.398Z,49.10
2018-12-20T12:04:46.912Z,55.77
2018-12-20T12:07:14.363Z,48.67
2018-12-20T12:09:41.835Z,51.90
2018-12-20T12:12:09.271Z,54.10
2018-12-20T12:14:36.753Z,53.33
2018-12-20T12:17:04.211Z,51.73
2018-12-20T12:19:31.660Z,53.93
2018-12-20T12:21:59.199Z,51.77
2018-12-20T12:24:26.667Z,49.00
2018-12-20T12:26:54.124Z,45.37
2018-12-20T12:29:21.614Z,51.57
2018-12-20T12:31:49.108Z,49.27
2018-12-20T12:34:16.558Z,51.67
2018-12-20T12:36:45.066Z,48.50
2018-12-20T12:39:12.515Z,52.60
2018-12-20T12:41:39.983Z,50.57
2018-12-20T12:44:09.397Z,51.00
2018-12-20T12:46:36.923Z,52.53
2018-12-20T12:49:04.347Z,60.90
2018-12-20T12:51:31.816Z,55.17
2018-12-20T12:53:59.259Z,52.10
2018-12-20T12:56:26.719Z,57.40
2018-12-20T12:58:54.155Z,58.17
2018-12-20T13:01:21.639Z,55.70
2018-12-20T13:03:49.104Z,62.07
2018-12-20T13:06:16.632Z,55.27
2018-12-20T13:08:44.087Z,57.27
2018-12-20T13:11:11.539Z,57.87
2018-12-20T13:13:38.977Z,58.47
2018-12-20T13:16:06.479Z,56.60
2018-12-20T13:18:33.953Z,55.23
2018-12-20T13:21:01.403Z,59.30
2018-12-20T13:23:28.831Z,55.87
2018-12-20T13:25:56.317Z,60.13
2018-12-20T13:28:23.740Z,55.70
2018-12-20T13:30:51.239Z,54.07
2018-12-20T13:33:18.695Z,57.17
2018-12-20T13:35:46.170Z,55.17
2018-12-20T13:38:13.678Z,59.67
2018-12-20T13:40:41.115Z,63.83
2018-12-20T13:43:08.594Z,60.93
2018-12-20T13:45:36.066Z,60.80
2018-12-20T13:48:03.496Z,65.53
2018-12-20T13:50:30.927Z,66.23
2018-12-20T13:52:58.392Z,69.50
2018-12-20T13:55:25.832Z,61.73
2018-12-20T13:57:53.317Z,57.57
2018-12-20T14:00:20.749Z,64.90
2018-12-20T14:02:48.343Z,60.00
2018-12-20T14:05:15.779Z,68.23
2018-12-20T14:07:43.227Z,61.27
2018-12-20T14:10:10.690Z,65.57
2018-12-20T14:12:38.191Z,68.03
2018-12-20T14:15:06.518Z,67.53
2018-12-20T14:17:34.000Z,63.83
2018-12-20T14:20:01.636Z,63.10
2018-12-20T14:22:29.042Z,68.93
2018-12-20T14:24:56.528Z,68.93
2018-12-20T14:27:23.975Z,70.33
2018-12-20T14:29:51.416Z,72.13
2018-12-20T14:32:18.874Z,75.93
2018-12-20T14:34:46.439Z,75.43
2018-12-20T14:37:13.941Z,67.93
2018-12-20T14:39:41.376Z,71.57
2018-12-20T14:42:08.863Z,71.70
2018-12-20T14:44:36.274Z,77.33
2018-12-20T14:47:03.722Z,68.53
2018-12-20T14:49:31.185Z,75.93
2018-12-20T14:51:58.639Z,68.73
2018-12-20T14:54:28.203Z,73.87
2018-12-20T14:56:56.322Z,69.47
2018-12-20T14:59:23.781Z,62.53
2018-12-20T15:01:51.215Z,69.33
2018-12-20T15:04:18.706Z,73.67
2018-12-20T15:06:46.218Z,74.77
2018-12-20T15:09:13.679Z,92.07
2018-12-20T15:11:41.140Z,85.07
2018-12-20T15:14:08.784Z,81.60
2018-12-20T15:16:36.255Z,74.70
2018-12-20T15:19:03.796Z,75.20
2018-12-20T15:21:31.247Z,82.83
2018-12-20T15:23:58.675Z,70.10
2018-12-20T15:26:26.189Z,78.57
2018-12-20T15:28:53.634Z,74.47
2018-12-20T15:31:21.193Z,74.43
2018-12-20T15:33:48.703Z,79.90
2018-12-20T15:36:16.169Z,77.37
2018-12-20T15:38:43.632Z,75.43
2018-12-20T15:41:11.079Z,77.70
2018-12-20T15:43:38.533Z,77.47
2018-12-20T15:46:05.989Z,81.60
2018-12-20T15:48:33.635Z,74.30
2018-12-20T15:51:01.080Z,73.30
2018-12-20T15:53:28.535Z,77.10
2018-12-20T15:55:55.980Z,73.20
2018-12-20T15:58:23.453Z,78.33
2018-12-20T16:00:50.900Z,72.57
2018-12-20T16:03:18.383Z,83.37
2018-12-20T16:05:45.856Z,79.27
2018-12-20T16:08:13.307Z,71.97
2018-12-20T16:10:40.869Z,85.27
2018-12-20T16:13:08.315Z,82.27
2018-12-20T16:15:35.783Z,82.10
2018-12-20T16:18:03.302Z,83.63
2018-12-20T16:20:30.755Z,75.70
2018-12-20T16:22:58.192Z,78.27
2018-12-20T16:25:25.651Z,88.20
2018-12-20T16:27:53.165Z,74.73
2018-12-20T16:30:20.619Z,91.97
2018-12-20T16:32:48.096Z,79.20
2018-12-20T16:35:15.573Z,97.97
2018-12-20T16:37:43.003Z,81.13
2018-12-20T16:40:10.463Z,94.80
2018-12-20T16:42:37.964Z,91.97
2018-12-20T16:45:06.026Z,93.33
2018-12-20T16:47:33.496Z,87.07
2018-12-20T16:50:01.034Z,91.40
2018-12-20T16:52:28.492Z,83.63
2018-12-20T16:54:55.917Z,78.67
2018-12-20T16:57:23.367Z,87.03
2018-12-20T16:59:50.819Z,82.27
2018-12-20T17:02:18.279Z,86.37
2018-12-20T17:04:46.239Z,87.03
2018-12-20T17:07:13.770Z,81.03
2018-12-20T17:09:41.227Z,81.43
2018-12-20T17:12:08.675Z,85.87
2018-12-20T17:14:36.151Z,78.03
2018-12-20T17:17:03.663Z,89.00
2018-12-20T17:19:31.099Z,86.43
2018-12-20T17:21:58.658Z,78.47
2018-12-20T17:24:26.496Z,81.70
2018-12-20T17:26:53.987Z,83.43
2018-12-20T17:29:21.428Z,85.97
2018-12-20T17:31:49.893Z,87.43
2018-12-20T17:34:17.344Z,82.17
2018-12-20T17:36:44.796Z,74.97
2018-12-20T17:39:12.302Z,83.67
2018-12-20T17:41:39.760Z,82.60
2018-12-20T17:44:07.235Z,78.00
2018-12-20T17:46:34.671Z,84.80
2018-12-20T17:49:02.131Z,75.23
2018-12-20T17:51:29.591Z,81.50
2018-12-20T17:53:57.025Z,75.57
2018-12-20T17:56:24.480Z,78.40
2018-12-20T17:58:52.475Z,73.80
2018-12-20T18:01:19.983Z,74.50
2018-12-20T18:03:47.432Z,79.20
2018-12-20T18:06:14.914Z,70.90
2018-12-20T18:08:42.379Z,76.23
2018-12-20T18:11:09.812Z,72.70
2018-12-20T18:13:37.261Z,86.40
2018-12-20T18:16:04.867Z,77.93
2018-12-20T18:18:32.307Z,75.43
2018-12-20T18:20:59.791Z,73.70
2018-12-20T18:23:27.235Z,75.03
2018-12-20T18:25:54.706Z,77.63
2018-12-20T18:28:22.143Z,81.73
2018-12-20T18:30:49.590Z,81.50
2018-12-20T18:33:17.087Z,81.63
2018-12-20T18:35:44.684Z,78.10
2018-12-20T18:38:12.136Z,74.00
2018-12-20T18:40:39.598Z,91.67
2018-12-20T18:43:07.036Z,93.67
2018-12-20T18:45:34.557Z,79.43
2018-12-20T18:48:02.137Z,89.97
2018-12-20T18:50:29.666Z,93.90
2018-12-20T18:52:57.127Z,88.13
2018-12-20T18:55:24.584Z,86.00
2018-12-20T18:57:52.043Z,84.20
2018-12-20T19:00:19.534Z,82.70
2018-12-20T19:02:46.999Z,87.20
2018-12-20T19:05:14.428Z,90.03
2018-12-20T19:07:41.899Z,80.27
2018-12-20T19:10:09.407Z,88.77
2018-12-20T19:12:36.863Z,81.40
2018-12-20T19:15:05.616Z,77.57
2018-12-20T19:17:33.088Z,74.03
2018-12-20T19:20:00.515Z,77.70
2018-12-20T19:22:28.064Z,75.90
2018-12-20T19:24:55.519Z,74.80
2018-12-20T19:27:22.980Z,68.20
2018-12-20T19:29:50.447Z,77.67
2018-12-20T19:32:17.969Z,73.60
2018-12-20T19:34:45.465Z,79.33
2018-12-20T19:37:13.011Z,66.37
2018-12-20T19:39:40.469Z,65.90
2018-12-20T19:42:09.860Z,63.23
2018-12-20T19:44:37.507Z,69.17
2018-12-20T19:47:05.004Z,61.80
2018-12-20T19:49:32.528Z,64.67
2018-12-20T19:51:59.986Z,60.43
2018-12-20T19:54:27.418Z,59.33
2018-12-20T19:56:54.893Z,63.10
2018-12-20T19:59:22.337Z,55.87
2018-12-20T20:01:49.809Z,56.57
2018-12-20T20:04:17.235Z,56.57
2018-12-20T20:06:44.745Z,56.13
2018-12-20T20:09:12.232Z,49.47
2018-12-20T20:11:39.824Z,52.33
2018-12-20T20:14:07.260Z,50.87
2018-12-20T20:16:34.725Z,42.87
2018-12-20T20:19:02.168Z,53.33
2018-12-20T20:21:29.621Z,45.87
2018-12-20T20:23:57.750Z,43.73
2018-12-20T20:26:25.272Z,48.67
2018-12-20T20:28:52.737Z,46.00
2018-12-20T20:31:20.201Z,46.93
2018-12-20T20:33:47.656Z,45.83
2018-12-20T20:36:15.118Z,45.10
2018-12-20T20:38:42.564Z,40.30
2018-12-20T20:41:10.093Z,47.67
2018-12-20T20:43:37.580Z,40.23
2018-12-20T20:46:05.018Z,41.20
2018-12-20T20:48:32.482Z,41.07
2018-12-20T20:50:59.928Z,42.80
2018-12-20T20:53:27.383Z,40.80
2018-12-20T20:55:54.839Z,37.90
2018-12-20T20:58:22.298Z,41.07
2018-12-20T21:00:49.756Z,39.07
2018-12-20T21:03:17.235Z,42.57
2018-12-20T21:05:44.712Z,44.10
2018-12-20T21:08:12.157Z,50.43
2018-12-20T21:10:40.134Z,45.93
2018-12-20T21:13:07.592Z,45.80
2018-12-20T21:15:35.048Z,45.67
2018-12-20T21:18:02.520Z,52.43
2018-12-20T21:20:30.786Z,60.50
2018-12-20T21:23:12.560Z,58.37
2018-12-20T21:25:40.011Z,58.37
2018-12-20T21:28:07.476Z,52.43
2018-12-20T21:30:34.936Z,60.73
2018-12-20T21:33:02.411Z,65.70
2018-12-20T21:35:29.872Z,62.23
2018-12-20T21:37:57.308Z,70.57
2018-12-20T21:40:24.750Z,79.27
2018-12-20T21:42:52.283Z,68.60
2018-12-20T21:45:19.780Z,80.17
2018-12-20T21:47:47.236Z,64.93
2018-12-20T21:50:14.707Z,66.07
2018-12-20T21:52:42.136Z,64.13
2018-12-20T21:55:09.639Z,67.17
2018-12-20T21:57:37.176Z,75.37
2018-12-20T22:00:06.414Z,68.00
2018-12-20T22:02:33.871Z,73.63
2018-12-20T22:05:01.418Z,82.73
2018-12-20T22:07:28.852Z,80.40
2018-12-20T22:09:56.303Z,80.07
2018-12-20T22:12:23.744Z,80.90
2018-12-20T22:14:51.193Z,73.13
2018-12-20T22:17:18.644Z,78.67
2018-12-20T22:19:46.075Z,92.60
2018-12-20T22:22:13.541Z,79.80
2018-12-20T22:24:40.975Z,76.03
2018-12-20T22:27:08.432Z,77.67
2018-12-20T22:29:35.870Z,69.13
2018-12-20T22:32:03.308Z,74.83
2018-12-20T22:34:30.768Z,69.83
2018-12-20T22:36:58.211Z,76.33
2018-12-20T22:39:35.768Z,86.73
2018-12-20T22:42:03.209Z,69.43
2018-12-20T22:44:30.664Z,75.97
2018-12-20T22:46:58.127Z,57.97
2018-12-20T22:49:25.579Z,62.90
2018-12-20T22:51:53.100Z,67.00
2018-12-20T22:54:20.584Z,68.30
2018-12-20T22:56:48.148Z,83.70
2018-12-20T22:59:22.815Z,71.40
2018-12-20T23:01:50.276Z,70.53
2018-12-20T23:04:17.717Z,79.00
2018-12-20T23:06:45.170Z,63.17
2018-12-20T23:09:12.620Z,72.90
2018-12-20T23:11:40.083Z,70.17
2018-12-20T23:14:07.541Z,70.70
2018-12-20T23:16:35.978Z,65.90
2018-12-20T23:19:03.543Z,75.00
2018-12-20T23:21:31.019Z,70.90
2018-12-20T23:23:58.447Z,61.50
2018-12-20T23:26:25.910Z,70.77
2018-12-20T23:28:53.363Z,70.17
2018-12-20T23:31:20.824Z,78.77
2018-12-20T23:33:48.360Z,75.77
2018-12-20T23:36:15.857Z,63.87
2018-12-20T23:38:43.320Z,76.70
2018-12-20T23:41:10.764Z,70.57
2018-12-20T23:43:38.215Z,65.20
2018-12-20T23:46:05.675Z,72.90
2018-12-20T23:48:33.112Z,80.10
2018-12-20T23:51:00.567Z,74.20
2018-12-20T23:53:28.009Z,82.37
2018-12-20T23:55:55.460Z,66.60
2018-12-20T23:58:22.912Z,72.23
